Terminal Aerodrome Forecast
Issued by NWS Missoula, MT

Home | Current Version | Previous Version | Text Only | Print | Product List | Glossary On
Versions: 1 2 3 4 5 6 7 8 9 10 11 12 13
000
FTUS45 KMSO 270132 AAA
TAFMSO
TAF AMD
KMSO 270132Z 2702/2724 01012G21KT P6SM SKC
     FM270205 31012KT P6SM VCTS BKN120CB
     FM270215 30015G38KT P6SM -TSRA SCT060CB BKN100
     FM270300 27010KT P6SM -SHRA SCT060 OVC100
     FM270600 27010KT P6SM -SHRA VCTS BKN060CB OVC100=

USA.gov is the U.S. government's official web portal to all federal, state and local government web resources and services.